sensor_id;sensor_type;location;lat;lon;timestamp;P1;P2;P0
80289;PMS7003;69592;44.804;-0.550;2023-10-19T00:01:20;1.00;1.00;1.00
80289;PMS7003;69592;44.804;-0.550;2023-10-19T00:03:48;1.00;1.00;0.00
80289;PMS7003;69592;44.804;-0.550;2023-10-19T00:06:20;1.00;1.00;1.00
80289;PMS7003;69592;44.804;-0.550;2023-10-19T00:08:48;1.00;1.00;1.00
80289;PMS7003;69592;44.804;-0.550;2023-10-19T00:11:18;1.00;1.00;0.00
80289;PMS7003;69592;44.804;-0.550;2023-10-19T00:13:52;2.33;1.00;1.00
80289;PMS7003;69592;44.804;-0.550;2023-10-19T00:16:22;0.67;0.67;0.67
80289;PMS7003;69592;44.804;-0.550;2023-10-19T00:18:51;2.00;1.00;0.00
80289;PMS7003;69592;44.804;-0.550;2023-10-19T00:21:18;1.00;1.00;0.33
80289;PMS7003;69592;44.804;-0.550;2023-10-19T00:23:45;2.00;1.00;1.00
80289;PMS7003;69592;44.804;-0.550;2023-10-19T00:26:15;0.00;0.00;0.00
80289;PMS7003;69592;44.804;-0.550;2023-10-19T00:28:53;2.00;1.00;1.00
80289;PMS7003;69592;44.804;-0.550;2023-10-19T00:31:20;1.67;1.00;1.00
80289;PMS7003;69592;44.804;-0.550;2023-10-19T00:33:47;1.00;0.00;0.00
80289;PMS7003;69592;44.804;-0.550;2023-10-19T00:36:16;1.00;1.00;0.00
80289;PMS7003;69592;44.804;-0.550;2023-10-19T00:38:45;0.00;0.00;0.00
80289;PMS7003;69592;44.804;-0.550;2023-10-19T00:41:23;0.00;0.00;0.00
80289;PMS7003;69592;44.804;-0.550;2023-10-19T00:43:54;2.00;1.00;0.00
80289;PMS7003;69592;44.804;-0.550;2023-10-19T00:46:28;0.00;0.00;0.00
80289;PMS7003;69592;44.804;-0.550;2023-10-19T00:49:08;1.00;1.00;1.00
80289;PMS7003;69592;44.804;-0.550;2023-10-19T00:51:38;2.00;0.33;0.00
80289;PMS7003;69592;44.804;-0.550;2023-10-19T00:54:27;1.00;1.00;1.00
80289;PMS7003;69592;44.804;-0.550;2023-10-19T00:57:08;1.00;1.00;0.00
80289;PMS7003;69592;44.804;-0.550;2023-10-19T00:59:36;1.00;1.00;1.00
80289;PMS7003;69592;44.804;-0.550;2023-10-19T01:02:14;0.00;0.00;0.00
80289;PMS7003;69592;44.804;-0.550;2023-10-19T01:04:44;1.00;0.00;0.00
80289;PMS7003;69592;44.804;-0.550;2023-10-19T01:07:16;0.00;0.00;0.00
80289;PMS7003;69592;44.804;-0.550;2023-10-19T01:10:03;2.00;1.00;0.00
80289;PMS7003;69592;44.804;-0.550;2023-10-19T01:12:56;0.00;0.00;0.00
80289;PMS7003;69592;44.804;-0.550;2023-10-19T01:15:24;1.00;1.00;1.00
80289;PMS7003;69592;44.804;-0.550;2023-10-19T01:17:52;1.33;1.00;1.00
80289;PMS7003;69592;44.804;-0.550;2023-10-19T01:20:21;3.00;1.00;1.00
80289;PMS7003;69592;44.804;-0.550;2023-10-19T01:25:33;1.00;1.00;1.00
80289;PMS7003;69592;44.804;-0.550;2023-10-19T01:28:19;1.00;1.00;0.67
80289;PMS7003;69592;44.804;-0.550;2023-10-19T01:31:04;1.00;1.00;1.00
80289;PMS7003;69592;44.804;-0.550;2023-10-19T01:33:31;1.00;1.00;1.00
80289;PMS7003;69592;44.804;-0.550;2023-10-19T01:35:57;2.00;2.00;1.33
80289;PMS7003;69592;44.804;-0.550;2023-10-19T01:39:01;3.33;2.00;2.00
80289;PMS7003;69592;44.804;-0.550;2023-10-19T01:41:28;1.00;1.00;1.00
80289;PMS7003;69592;44.804;-0.550;2023-10-19T01:43:55;2.00;2.00;1.67
80289;PMS7003;69592;44.804;-0.550;2023-10-19T01:46:29;2.00;2.00;2.00
80289;PMS7003;69592;44.804;-0.550;2023-10-19T01:49:00;0.00;0.00;0.00
80289;PMS7003;69592;44.804;-0.550;2023-10-19T01:51:28;1.00;1.00;1.00
80289;PMS7003;69592;44.804;-0.550;2023-10-19T01:53:55;1.00;1.00;1.00
80289;PMS7003;69592;44.804;-0.550;2023-10-19T01:56:22;1.67;1.67;1.00
80289;PMS7003;69592;44.804;-0.550;2023-10-19T01:58:48;1.00;1.00;1.00
80289;PMS7003;69592;44.804;-0.550;2023-10-19T02:01:16;1.00;1.00;1.00
80289;PMS7003;69592;44.804;-0.550;2023-10-19T02:03:57;0.00;0.00;0.00
80289;PMS7003;69592;44.804;-0.550;2023-10-19T02:06:29;1.00;1.00;0.67
80289;PMS7003;69592;44.804;-0.550;2023-10-19T02:09:12;1.00;1.00;1.00
80289;PMS7003;69592;44.804;-0.550;2023-10-19T02:11:47;0.00;0.00;0.00
80289;PMS7003;69592;44.804;-0.550;2023-10-19T02:14:15;0.33;0.33;0.33
80289;PMS7003;69592;44.804;-0.550;2023-10-19T02:16:44;2.00;2.00;1.00
80289;PMS7003;69592;44.804;-0.550;2023-10-19T02:19:17;1.00;1.00;1.00
80289;PMS7003;69592;44.804;-0.550;2023-10-19T02:21:44;1.00;1.00;1.00
80289;PMS7003;69592;44.804;-0.550;2023-10-19T02:24:12;2.33;2.00;1.00
80289;PMS7003;69592;44.804;-0.550;2023-10-19T02:26:39;2.00;2.00;1.33
80289;PMS7003;69592;44.804;-0.550;2023-10-19T02:29:05;2.00;1.00;1.00
80289;PMS7003;69592;44.804;-0.550;2023-10-19T02:31:35;1.67;1.67;1.00
80289;PMS7003;69592;44.804;-0.550;2023-10-19T02:34:08;1.00;1.00;1.00
80289;PMS7003;69592;44.804;-0.550;2023-10-19T02:36:35;1.67;1.33;1.00
80289;PMS7003;69592;44.804;-0.550;2023-10-19T02:39:03;1.00;1.00;1.00
80289;PMS7003;69592;44.804;-0.550;2023-10-19T02:41:40;1.67;1.67;1.00
80289;PMS7003;69592;44.804;-0.550;2023-10-19T02:44:12;1.00;1.00;1.00
80289;PMS7003;69592;44.804;-0.550;2023-10-19T02:46:43;1.33;1.33;1.00
80289;PMS7003;69592;44.804;-0.550;2023-10-19T02:49:09;1.33;1.33;1.00
80289;PMS7003;69592;44.804;-0.550;2023-10-19T02:51:40;1.33;1.33;1.00
80289;PMS7003;69592;44.804;-0.550;2023-10-19T02:54:09;2.00;2.00;1.00
80289;PMS7003;69592;44.804;-0.550;2023-10-19T02:56:41;3.00;1.67;1.00
80289;PMS7003;69592;44.804;-0.550;2023-10-19T02:59:08;0.00;0.00;0.00
80289;PMS7003;69592;44.804;-0.550;2023-10-19T03:01:34;3.00;2.00;2.00
80289;PMS7003;69592;44.804;-0.550;2023-10-19T03:04:00;1.00;1.00;1.00
80289;PMS7003;69592;44.804;-0.550;2023-10-19T03:06:27;1.33;1.00;1.00
80289;PMS7003;69592;44.804;-0.550;2023-10-19T03:08:58;1.00;1.00;1.00
80289;PMS7003;69592;44.804;-0.550;2023-10-19T03:11:37;1.33;1.33;1.00
80289;PMS7003;69592;44.804;-0.550;2023-10-19T03:14:05;3.00;2.00;1.33
80289;PMS7003;69592;44.804;-0.550;2023-10-19T03:16:31;0.67;0.67;0.67
80289;PMS7003;69592;44.804;-0.550;2023-10-19T03:18:56;2.00;0.67;0.67
80289;PMS7003;69592;44.804;-0.550;2023-10-19T03:21:21;1.33;1.00;1.00
80289;PMS7003;69592;44.804;-0.550;2023-10-19T03:23:52;1.00;1.00;1.00
80289;PMS7003;69592;44.804;-0.550;2023-10-19T03:26:21;1.00;1.00;1.00
80289;PMS7003;69592;44.804;-0.550;2023-10-19T03:28:52;1.33;1.33;1.33
80289;PMS7003;69592;44.804;-0.550;2023-10-19T03:31:24;1.00;1.00;1.00
80289;PMS7003;69592;44.804;-0.550;2023-10-19T03:33:52;1.00;1.00;1.00
80289;PMS7003;69592;44.804;-0.550;2023-10-19T03:36:25;2.00;1.67;0.33
80289;PMS7003;69592;44.804;-0.550;2023-10-19T03:38:51;1.67;1.67;1.33
80289;PMS7003;69592;44.804;-0.550;2023-10-19T03:41:21;1.33;1.00;0.00
80289;PMS7003;69592;44.804;-0.550;2023-10-19T03:43:47;1.00;1.00;1.00
80289;PMS7003;69592;44.804;-0.550;2023-10-19T03:46:14;2.00;2.00;1.33
80289;PMS7003;69592;44.804;-0.550;2023-10-19T03:48:47;1.33;1.33;1.33
80289;PMS7003;69592;44.804;-0.550;2023-10-19T03:51:12;1.00;1.00;1.00
80289;PMS7003;69592;44.804;-0.550;2023-10-19T03:53:39;0.67;0.67;0.67
80289;PMS7003;69592;44.804;-0.550;2023-10-19T03:56:08;1.00;1.00;1.00
80289;PMS7003;69592;44.804;-0.550;2023-10-19T03:58:36;0.67;0.67;0.67
80289;PMS7003;69592;44.804;-0.550;2023-10-19T04:01:03;0.00;0.00;0.00
80289;PMS7003;69592;44.804;-0.550;2023-10-19T04:03:30;2.00;2.00;2.00
80289;PMS7003;69592;44.804;-0.550;2023-10-19T04:05:55;1.67;1.00;1.00
80289;PMS7003;69592;44.804;-0.550;2023-10-19T04:08:23;1.00;1.00;1.00
80289;PMS7003;69592;44.804;-0.550;2023-10-19T04:10:51;3.00;3.00;2.00
80289;PMS7003;69592;44.804;-0.550;2023-10-19T04:13:46;1.00;1.00;1.00
80289;PMS7003;69592;44.804;-0.550;2023-10-19T04:16:11;3.00;3.00;2.00
80289;PMS7003;69592;44.804;-0.550;2023-10-19T04:18:37;1.00;1.00;1.00
80289;PMS7003;69592;44.804;-0.550;2023-10-19T04:21:08;2.00;2.00;1.67
80289;PMS7003;69592;44.804;-0.550;2023-10-19T04:23:34;3.67;2.67;2.00
80289;PMS7003;69592;44.804;-0.550;2023-10-19T04:26:02;2.00;2.00;2.00
80289;PMS7003;69592;44.804;-0.550;2023-10-19T04:28:36;1.00;1.00;1.00
80289;PMS7003;69592;44.804;-0.550;2023-10-19T04:31:14;2.00;2.00;1.00
80289;PMS7003;69592;44.804;-0.550;2023-10-19T04:33:41;1.00;1.00;1.00
80289;PMS7003;69592;44.804;-0.550;2023-10-19T04:36:11;2.00;2.00;1.67
80289;PMS7003;69592;44.804;-0.550;2023-10-19T04:38:39;2.33;2.00;1.00
80289;PMS7003;69592;44.804;-0.550;2023-10-19T04:41:08;1.67;1.67;1.67
80289;PMS7003;69592;44.804;-0.550;2023-10-19T04:43:35;3.00;3.00;2.67
80289;PMS7003;69592;44.804;-0.550;2023-10-19T04:46:09;2.00;2.00;2.00
80289;PMS7003;69592;44.804;-0.550;2023-10-19T04:48:39;2.33;2.00;1.00
80289;PMS7003;69592;44.804;-0.550;2023-10-19T04:51:05;2.00;2.00;2.00
80289;PMS7003;69592;44.804;-0.550;2023-10-19T04:53:36;2.33;2.33;2.00
80289;PMS7003;69592;44.804;-0.550;2023-10-19T04:56:03;2.00;2.00;2.00
80289;PMS7003;69592;44.804;-0.550;2023-10-19T04:58:37;2.67;2.00;1.00
80289;PMS7003;69592;44.804;-0.550;2023-10-19T05:01:03;1.33;1.33;1.00
80289;PMS7003;69592;44.804;-0.550;2023-10-19T05:03:30;1.67;1.67;1.00
80289;PMS7003;69592;44.804;-0.550;2023-10-19T05:05:56;2.00;2.00;1.67
80289;PMS7003;69592;44.804;-0.550;2023-10-19T05:08:22;1.00;1.00;1.00
80289;PMS7003;69592;44.804;-0.550;2023-10-19T05:10:50;7.33;7.33;6.33
80289;PMS7003;69592;44.804;-0.550;2023-10-19T05:13:19;1.00;1.00;1.00
80289;PMS7003;69592;44.804;-0.550;2023-10-19T05:15:45;3.00;1.67;1.67
80289;PMS7003;69592;44.804;-0.550;2023-10-19T05:18:11;2.00;2.00;2.00
80289;PMS7003;69592;44.804;-0.550;2023-10-19T05:20:37;4.00;3.00;2.00
80289;PMS7003;69592;44.804;-0.550;2023-10-19T05:23:05;3.00;3.00;2.67
80289;PMS7003;69592;44.804;-0.550;2023-10-19T05:25:33;3.00;3.00;2.67
80289;PMS7003;69592;44.804;-0.550;2023-10-19T05:27:58;3.00;3.00;2.00
80289;PMS7003;69592;44.804;-0.550;2023-10-19T05:30:25;2.67;2.67;2.00
80289;PMS7003;69592;44.804;-0.550;2023-10-19T05:32:51;3.00;3.00;2.00
80289;PMS7003;69592;44.804;-0.550;2023-10-19T05:35:16;3.00;2.33;2.33
80289;PMS7003;69592;44.804;-0.550;2023-10-19T05:37:48;2.00;2.00;2.00
80289;PMS7003;69592;44.804;-0.550;2023-10-19T05:40:14;1.00;1.00;1.00
80289;PMS7003;69592;44.804;-0.550;2023-10-19T05:42:40;3.00;3.00;2.67
80289;PMS7003;69592;44.804;-0.550;2023-10-19T05:45:05;2.00;2.00;1.67
80289;PMS7003;69592;44.804;-0.550;2023-10-19T05:47:31;4.00;3.00;2.00
80289;PMS7003;69592;44.804;-0.550;2023-10-19T05:49:57;4.00;3.00;2.00
80289;PMS7003;69592;44.804;-0.550;2023-10-19T05:52:22;4.00;3.67;3.00
80289;PMS7003;69592;44.804;-0.550;2023-10-19T05:54:47;3.00;3.00;2.33
80289;PMS7003;69592;44.804;-0.550;2023-10-19T05:57:14;3.67;3.67;3.00
80289;PMS7003;69592;44.804;-0.550;2023-10-19T05:59:40;3.00;2.33;2.00
80289;PMS7003;69592;44.804;-0.550;2023-10-19T06:02:06;2.00;2.00;2.00
80289;PMS7003;69592;44.804;-0.550;2023-10-19T06:04:32;4.00;4.00;3.00
80289;PMS7003;69592;44.804;-0.550;2023-10-19T06:06:58;2.67;2.67;2.00
80289;PMS7003;69592;44.804;-0.550;2023-10-19T06:09:23;3.00;3.00;2.00
80289;PMS7003;69592;44.804;-0.550;2023-10-19T06:11:54;3.00;3.00;2.00
80289;PMS7003;69592;44.804;-0.550;2023-10-19T06:14:20;3.00;3.00;2.33
80289;PMS7003;69592;44.804;-0.550;2023-10-19T06:16:45;2.00;2.00;1.67
80289;PMS7003;69592;44.804;-0.550;2023-10-19T06:19:11;5.33;3.00;2.33
80289;PMS7003;69592;44.804;-0.550;2023-10-19T06:21:36;2.67;2.67;2.33
80289;PMS7003;69592;44.804;-0.550;2023-10-19T06:24:02;2.00;2.00;2.00
80289;PMS7003;69592;44.804;-0.550;2023-10-19T06:26:28;1.00;1.00;1.00
80289;PMS7003;69592;44.804;-0.550;2023-10-19T06:28:53;3.33;3.33;2.33
80289;PMS7003;69592;44.804;-0.550;2023-10-19T06:31:25;2.00;2.00;2.00
80289;PMS7003;69592;44.804;-0.550;2023-10-19T06:33:51;3.00;3.00;2.00
80289;PMS7003;69592;44.804;-0.550;2023-10-19T06:36:17;2.67;2.67;2.00
80289;PMS7003;69592;44.804;-0.550;2023-10-19T06:38:44;2.33;2.00;1.33
80289;PMS7003;69592;44.804;-0.550;2023-10-19T06:41:10;3.33;3.00;2.67
80289;PMS7003;69592;44.804;-0.550;2023-10-19T06:43:39;1.00;1.00;1.00
80289;PMS7003;69592;44.804;-0.550;2023-10-19T06:46:05;3.33;3.33;3.00
80289;PMS7003;69592;44.804;-0.550;2023-10-19T06:48:31;3.00;2.00;1.00
80289;PMS7003;69592;44.804;-0.550;2023-10-19T06:50:57;2.67;2.67;2.00
80289;PMS7003;69592;44.804;-0.550;2023-10-19T06:53:22;3.00;3.00;3.00
80289;PMS7003;69592;44.804;-0.550;2023-10-19T06:55:48;3.00;3.00;2.00
80289;PMS7003;69592;44.804;-0.550;2023-10-19T06:58:13;2.00;2.00;1.33
80289;PMS7003;69592;44.804;-0.550;2023-10-19T07:00:40;2.33;1.00;1.00
80289;PMS7003;69592;44.804;-0.550;2023-10-19T07:03:08;3.00;3.00;3.00
80289;PMS7003;69592;44.804;-0.550;2023-10-19T07:05:34;2.67;2.67;2.00
80289;PMS7003;69592;44.804;-0.550;2023-10-19T07:07:59;3.00;3.00;3.00
80289;PMS7003;69592;44.804;-0.550;2023-10-19T07:10:26;4.00;2.67;2.33
80289;PMS7003;69592;44.804;-0.550;2023-10-19T07:12:53;3.00;3.00;2.00
80289;PMS7003;69592;44.804;-0.550;2023-10-19T07:15:20;2.33;2.33;1.67
80289;PMS7003;69592;44.804;-0.550;2023-10-19T07:17:47;1.67;1.67;1.67
80289;PMS7003;69592;44.804;-0.550;2023-10-19T07:20:15;6.00;6.00;5.33
80289;PMS7003;69592;44.804;-0.550;2023-10-19T07:22:50;3.00;3.00;2.00
80289;PMS7003;69592;44.804;-0.550;2023-10-19T07:25:31;4.67;4.67;3.67
80289;PMS7003;69592;44.804;-0.550;2023-10-19T07:28:07;3.00;3.00;2.33
80289;PMS7003;69592;44.804;-0.550;2023-10-19T07:30:32;5.67;3.67;2.67
80289;PMS7003;69592;44.804;-0.550;2023-10-19T07:32:58;4.00;4.00;3.00
80289;PMS7003;69592;44.804;-0.550;2023-10-19T07:35:24;3.00;3.00;2.67
80289;PMS7003;69592;44.804;-0.550;2023-10-19T07:37:55;4.00;4.00;3.00
80289;PMS7003;69592;44.804;-0.550;2023-10-19T07:40:21;2.33;2.00;2.00
80289;PMS7003;69592;44.804;-0.550;2023-10-19T07:42:49;3.67;3.00;2.33
80289;PMS7003;69592;44.804;-0.550;2023-10-19T07:45:17;3.33;3.33;3.00
80289;PMS7003;69592;44.804;-0.550;2023-10-19T07:47:42;5.00;4.00;3.00
80289;PMS7003;69592;44.804;-0.550;2023-10-19T07:50:09;5.67;3.00;3.00
80289;PMS7003;69592;44.804;-0.550;2023-10-19T07:52:41;3.67;3.00;3.00
80289;PMS7003;69592;44.804;-0.550;2023-10-19T07:55:12;4.00;3.00;2.00
80289;PMS7003;69592;44.804;-0.550;2023-10-19T07:57:38;3.00;3.00;3.00
80289;PMS7003;69592;44.804;-0.550;2023-10-19T08:00:05;3.00;3.00;2.33
80289;PMS7003;69592;44.804;-0.550;2023-10-19T08:02:35;2.00;2.00;1.00
80289;PMS7003;69592;44.804;-0.550;2023-10-19T08:05:06;4.33;4.33;3.00
80289;PMS7003;69592;44.804;-0.550;2023-10-19T08:07:32;1.00;1.00;1.00
80289;PMS7003;69592;44.804;-0.550;2023-10-19T08:09:59;4.00;3.00;2.33
80289;PMS7003;69592;44.804;-0.550;2023-10-19T08:12:25;2.00;2.00;2.00
80289;PMS7003;69592;44.804;-0.550;2023-10-19T08:14:53;3.00;3.00;2.00
80289;PMS7003;69592;44.804;-0.550;2023-10-19T08:17:22;1.00;1.00;1.00
80289;PMS7003;69592;44.804;-0.550;2023-10-19T08:19:48;1.67;1.67;1.33
80289;PMS7003;69592;44.804;-0.550;2023-10-19T08:22:13;1.33;1.33;1.00
80289;PMS7003;69592;44.804;-0.550;2023-10-19T08:24:39;3.00;3.00;3.00
80289;PMS7003;69592;44.804;-0.550;2023-10-19T08:27:08;3.00;3.00;2.00
80289;PMS7003;69592;44.804;-0.550;2023-10-19T08:29:36;4.00;3.00;3.00
80289;PMS7003;69592;44.804;-0.550;2023-10-19T08:32:01;2.00;2.00;2.00
80289;PMS7003;69592;44.804;-0.550;2023-10-19T08:34:27;2.00;2.00;2.00
80289;PMS7003;69592;44.804;-0.550;2023-10-19T08:36:54;3.00;2.00;1.67
80289;PMS7003;69592;44.804;-0.550;2023-10-19T08:39:20;2.00;2.00;2.00
80289;PMS7003;69592;44.804;-0.550;2023-10-19T08:41:46;2.00;1.00;1.00
80289;PMS7003;69592;44.804;-0.550;2023-10-19T08:44:14;1.67;1.67;1.67
80289;PMS7003;69592;44.804;-0.550;2023-10-19T08:46:43;4.33;1.33;1.00
80289;PMS7003;69592;44.804;-0.550;2023-10-19T08:49:11;2.33;2.33;2.00
80289;PMS7003;69592;44.804;-0.550;2023-10-19T08:51:37;2.33;2.33;2.00
80289;PMS7003;69592;44.804;-0.550;2023-10-19T08:54:04;2.67;2.33;2.00
80289;PMS7003;69592;44.804;-0.550;2023-10-19T08:56:31;2.33;2.33;2.00
80289;PMS7003;69592;44.804;-0.550;2023-10-19T08:58:59;5.00;2.33;2.00
80289;PMS7003;69592;44.804;-0.550;2023-10-19T09:01:26;4.00;3.00;3.00
80289;PMS7003;69592;44.804;-0.550;2023-10-19T09:03:53;3.00;3.00;2.00
80289;PMS7003;69592;44.804;-0.550;2023-10-19T09:06:20;1.00;1.00;1.00
80289;PMS7003;69592;44.804;-0.550;2023-10-19T09:08:46;3.00;2.67;2.00
80289;PMS7003;69592;44.804;-0.550;2023-10-19T09:11:13;3.00;2.00;1.00
80289;PMS7003;69592;44.804;-0.550;2023-10-19T09:13:48;2.00;2.00;1.67
80289;PMS7003;69592;44.804;-0.550;2023-10-19T09:16:15;2.00;2.00;1.00
80289;PMS7003;69592;44.804;-0.550;2023-10-19T09:18:42;2.00;2.00;2.00
80289;PMS7003;69592;44.804;-0.550;2023-10-19T09:21:08;2.00;2.00;2.00
80289;PMS7003;69592;44.804;-0.550;2023-10-19T09:23:36;2.00;2.00;2.00
80289;PMS7003;69592;44.804;-0.550;2023-10-19T09:26:02;2.00;2.00;1.67
80289;PMS7003;69592;44.804;-0.550;2023-10-19T09:28:30;4.00;3.00;2.67
80289;PMS7003;69592;44.804;-0.550;2023-10-19T09:31:05;5.33;5.33;5.00
80289;PMS7003;69592;44.804;-0.550;2023-10-19T09:33:34;2.67;2.67;2.00
80289;PMS7003;69592;44.804;-0.550;2023-10-19T09:36:00;2.67;2.67;2.67
80289;PMS7003;69592;44.804;-0.550;2023-10-19T09:38:27;3.33;2.33;1.33
80289;PMS7003;69592;44.804;-0.550;2023-10-19T09:40:53;2.00;2.00;2.00
80289;PMS7003;69592;44.804;-0.550;2023-10-19T09:46:07;2.00;2.00;2.00
80289;PMS7003;69592;44.804;-0.550;2023-10-19T09:48:38;2.00;2.00;2.00
80289;PMS7003;69592;44.804;-0.550;2023-10-19T09:51:10;1.00;1.00;1.00
80289;PMS7003;69592;44.804;-0.550;2023-10-19T09:53:36;1.67;1.67;1.33
80289;PMS7003;69592;44.804;-0.550;2023-10-19T09:56:05;2.00;2.00;1.67
80289;PMS7003;69592;44.804;-0.550;2023-10-19T09:58:41;1.33;1.33;1.00
80289;PMS7003;69592;44.804;-0.550;2023-10-19T10:01:11;2.33;2.33;2.00
80289;PMS7003;69592;44.804;-0.550;2023-10-19T10:03:49;1.33;1.33;1.33
80289;PMS7003;69592;44.804;-0.550;2023-10-19T10:07:02;3.67;1.67;1.67
80289;PMS7003;69592;44.804;-0.550;2023-10-19T10:09:20;1.00;1.00;1.00
80289;PMS7003;69592;44.804;-0.550;2023-10-19T10:11:49;0.00;0.00;0.00
80289;PMS7003;69592;44.804;-0.550;2023-10-19T10:14:23;0.33;0.00;0.00
80289;PMS7003;69592;44.804;-0.550;2023-10-19T10:17:00;0.33;0.33;0.00
80289;PMS7003;69592;44.804;-0.550;2023-10-19T10:19:30;1.00;0.00;0.00
80289;PMS7003;69592;44.804;-0.550;2023-10-19T10:22:14;1.00;1.00;1.00
80289;PMS7003;69592;44.804;-0.550;2023-10-19T10:24:43;0.75;0.75;0.50
80289;PMS7003;69592;44.804;-0.550;2023-10-19T10:27:09;0.00;0.00;0.00
80289;PMS7003;69592;44.804;-0.550;2023-10-19T10:29:35;0.00;0.00;0.00
80289;PMS7003;69592;44.804;-0.550;2023-10-19T10:32:01;0.00;0.00;0.00
80289;PMS7003;69592;44.804;-0.550;2023-10-19T10:37:02;0.00;0.00;0.00
80289;PMS7003;69592;44.804;-0.550;2023-10-19T10:39:33;1.00;0.00;0.00
80289;PMS7003;69592;44.804;-0.550;2023-10-19T10:42:03;0.00;0.00;0.00
80289;PMS7003;69592;44.804;-0.550;2023-10-19T10:47:15;0.00;0.00;0.00
80289;PMS7003;69592;44.804;-0.550;2023-10-19T10:57:32;0.00;0.00;0.00
80289;PMS7003;69592;44.804;-0.550;2023-10-19T11:00:05;0.00;0.00;0.00
80289;PMS7003;69592;44.804;-0.550;2023-10-19T11:02:33;0.00;0.00;0.00
80289;PMS7003;69592;44.804;-0.550;2023-10-19T11:05:00;0.00;0.00;0.00
80289;PMS7003;69592;44.804;-0.550;2023-10-19T11:07:26;0.00;0.00;0.00
80289;PMS7003;69592;44.804;-0.550;2023-10-19T11:09:51;0.00;0.00;0.00
80289;PMS7003;69592;44.804;-0.550;2023-10-19T11:12:16;0.00;0.00;0.00
80289;PMS7003;69592;44.804;-0.550;2023-10-19T11:14:58;0.00;0.00;0.00
80289;PMS7003;69592;44.804;-0.550;2023-10-19T11:17:25;0.00;0.00;0.00
80289;PMS7003;69592;44.804;-0.550;2023-10-19T11:19:55;0.00;0.00;0.00
80289;PMS7003;69592;44.804;-0.550;2023-10-19T11:22:27;0.00;0.00;0.00
80289;PMS7003;69592;44.804;-0.550;2023-10-19T11:24:53;0.00;0.00;0.00
80289;PMS7003;69592;44.804;-0.550;2023-10-19T11:27:26;0.00;0.00;0.00
80289;PMS7003;69592;44.804;-0.550;2023-10-19T11:29:58;0.00;0.00;0.00
80289;PMS7003;69592;44.804;-0.550;2023-10-19T11:32:35;0.00;0.00;0.00
80289;PMS7003;69592;44.804;-0.550;2023-10-19T11:35:03;0.00;0.00;0.00
80289;PMS7003;69592;44.804;-0.550;2023-10-19T11:37:29;0.00;0.00;0.00
80289;PMS7003;69592;44.804;-0.550;2023-10-19T11:39:55;0.00;0.00;0.00
80289;PMS7003;69592;44.804;-0.550;2023-10-19T11:42:20;0.00;0.00;0.00
80289;PMS7003;69592;44.804;-0.550;2023-10-19T11:44:45;0.25;0.00;0.00
80289;PMS7003;69592;44.804;-0.550;2023-10-19T11:47:11;0.00;0.00;0.00
80289;PMS7003;69592;44.804;-0.550;2023-10-19T11:49:38;0.00;0.00;0.00
80289;PMS7003;69592;44.804;-0.550;2023-10-19T11:52:06;0.00;0.00;0.00
80289;PMS7003;69592;44.804;-0.550;2023-10-19T11:54:34;0.00;0.00;0.00
80289;PMS7003;69592;44.804;-0.550;2023-10-19T11:56:59;0.00;0.00;0.00
80289;PMS7003;69592;44.804;-0.550;2023-10-19T11:59:25;0.00;0.00;0.00
80289;PMS7003;69592;44.804;-0.550;2023-10-19T12:01:51;0.00;0.00;0.00
80289;PMS7003;69592;44.804;-0.550;2023-10-19T12:04:17;1.50;0.25;0.00
80289;PMS7003;69592;44.804;-0.550;2023-10-19T12:06:42;0.00;0.00;0.00
80289;PMS7003;69592;44.804;-0.550;2023-10-19T12:09:08;2.00;0.75;0.75
80289;PMS7003;69592;44.804;-0.550;2023-10-19T12:11:40;0.60;0.00;0.00
80289;PMS7003;69592;44.804;-0.550;2023-10-19T12:14:06;0.00;0.00;0.00
80289;PMS7003;69592;44.804;-0.550;2023-10-19T12:16:36;0.00;0.00;0.00
80289;PMS7003;69592;44.804;-0.550;2023-10-19T12:19:01;0.00;0.00;0.00
80289;PMS7003;69592;44.804;-0.550;2023-10-19T12:21:28;0.60;0.60;0.60
80289;PMS7003;69592;44.804;-0.550;2023-10-19T12:23:56;0.75;0.00;0.00
80289;PMS7003;69592;44.804;-0.550;2023-10-19T12:26:22;0.00;0.00;0.00
80289;PMS7003;69592;44.804;-0.550;2023-10-19T12:28:47;0.00;0.00;0.00
80289;PMS7003;69592;44.804;-0.550;2023-10-19T12:31:14;0.00;0.00;0.00
80289;PMS7003;69592;44.804;-0.550;2023-10-19T12:33:40;0.00;0.00;0.00
80289;PMS7003;69592;44.804;-0.550;2023-10-19T12:36:06;0.00;0.00;0.00
80289;PMS7003;69592;44.804;-0.550;2023-10-19T12:38:51;0.00;0.00;0.00
80289;PMS7003;69592;44.804;-0.550;2023-10-19T12:41:18;1.00;1.00;1.00
80289;PMS7003;69592;44.804;-0.550;2023-10-19T12:43:43;0.00;0.00;0.00
80289;PMS7003;69592;44.804;-0.550;2023-10-19T12:46:10;0.00;0.00;0.00
80289;PMS7003;69592;44.804;-0.550;2023-10-19T12:48:37;0.00;0.00;0.00
80289;PMS7003;69592;44.804;-0.550;2023-10-19T12:51:03;0.00;0.00;0.00
80289;PMS7003;69592;44.804;-0.550;2023-10-19T12:53:31;0.00;0.00;0.00
80289;PMS7003;69592;44.804;-0.550;2023-10-19T12:55:58;0.00;0.00;0.00
80289;PMS7003;69592;44.804;-0.550;2023-10-19T12:58:24;0.00;0.00;0.00
80289;PMS7003;69592;44.804;-0.550;2023-10-19T13:00:52;0.00;0.00;0.00
80289;PMS7003;69592;44.804;-0.550;2023-10-19T13:03:19;0.00;0.00;0.00
80289;PMS7003;69592;44.804;-0.550;2023-10-19T13:05:46;0.00;0.00;0.00
80289;PMS7003;69592;44.804;-0.550;2023-10-19T13:08:14;1.00;0.00;0.00
80289;PMS7003;69592;44.804;-0.550;2023-10-19T13:10:41;0.00;0.00;0.00
80289;PMS7003;69592;44.804;-0.550;2023-10-19T13:13:09;0.00;0.00;0.00
80289;PMS7003;69592;44.804;-0.550;2023-10-19T13:15:44;0.00;0.00;0.00
80289;PMS7003;69592;44.804;-0.550;2023-10-19T13:18:11;0.00;0.00;0.00
80289;PMS7003;69592;44.804;-0.550;2023-10-19T13:20:50;0.00;0.00;0.00
80289;PMS7003;69592;44.804;-0.550;2023-10-19T13:23:18;0.75;0.00;0.00
80289;PMS7003;69592;44.804;-0.550;2023-10-19T13:25:53;0.00;0.00;0.00
80289;PMS7003;69592;44.804;-0.550;2023-10-19T13:28:19;0.00;0.00;0.00
80289;PMS7003;69592;44.804;-0.550;2023-10-19T13:33:15;0.00;0.00;0.00
80289;PMS7003;69592;44.804;-0.550;2023-10-19T13:35:42;1.00;0.00;0.00
80289;PMS7003;69592;44.804;-0.550;2023-10-19T13:38:10;0.00;0.00;0.00
80289;PMS7003;69592;44.804;-0.550;2023-10-19T13:40:38;0.00;0.00;0.00
80289;PMS7003;69592;44.804;-0.550;2023-10-19T13:43:04;0.00;0.00;0.00
80289;PMS7003;69592;44.804;-0.550;2023-10-19T13:45:34;0.00;0.00;0.00
80289;PMS7003;69592;44.804;-0.550;2023-10-19T13:48:04;1.40;1.40;1.00
80289;PMS7003;69592;44.804;-0.550;2023-10-19T13:50:30;1.00;0.00;0.00
80289;PMS7003;69592;44.804;-0.550;2023-10-19T13:52:56;0.00;0.00;0.00
80289;PMS7003;69592;44.804;-0.550;2023-10-19T13:55:23;0.00;0.00;0.00
80289;PMS7003;69592;44.804;-0.550;2023-10-19T13:57:49;0.00;0.00;0.00
80289;PMS7003;69592;44.804;-0.550;2023-10-19T14:00:15;0.00;0.00;0.00
80289;PMS7003;69592;44.804;-0.550;2023-10-19T14:02:48;0.00;0.00;0.00
80289;PMS7003;69592;44.804;-0.550;2023-10-19T14:05:13;1.00;0.00;0.00
80289;PMS7003;69592;44.804;-0.550;2023-10-19T14:07:40;0.00;0.00;0.00
80289;PMS7003;69592;44.804;-0.550;2023-10-19T14:10:06;0.00;0.00;0.00
80289;PMS7003;69592;44.804;-0.550;2023-10-19T14:12:32;0.00;0.00;0.00
80289;PMS7003;69592;44.804;-0.550;2023-10-19T14:14:58;0.00;0.00;0.00
80289;PMS7003;69592;44.804;-0.550;2023-10-19T14:17:23;0.00;0.00;0.00
80289;PMS7003;69592;44.804;-0.550;2023-10-19T14:19:50;0.00;0.00;0.00
80289;PMS7003;69592;44.804;-0.550;2023-10-19T14:22:15;0.00;0.00;0.00
80289;PMS7003;69592;44.804;-0.550;2023-10-19T14:24:41;0.00;0.00;0.00
80289;PMS7003;69592;44.804;-0.550;2023-10-19T14:27:06;0.00;0.00;0.00
80289;PMS7003;69592;44.804;-0.550;2023-10-19T14:29:34;0.00;0.00;0.00
80289;PMS7003;69592;44.804;-0.550;2023-10-19T14:31:59;0.00;0.00;0.00
80289;PMS7003;69592;44.804;-0.550;2023-10-19T14:34:24;0.00;0.00;0.00
80289;PMS7003;69592;44.804;-0.550;2023-10-19T14:36:51;0.75;0.00;0.00
80289;PMS7003;69592;44.804;-0.550;2023-10-19T14:39:17;0.00;0.00;0.00